Archival Weather

Tokyo Intl

Tokyo, Japan (RJTT)

Report from: Tuesday, November 21, 2023 10:00 PM JST
Current time: Saturday, March 2, 2024 7:02 PM JST

Current weather – Weather history – Daily summaries
Weather forecast

Temperature14.0°C (57.2°F)
Dew point7.0°C (44.6°F)
Winds 6 kts (3.1 m/s, 6.9 mph) Vrb
Winds variableWinds variable from North (359.999999°) to East-Northeast (70°)
Visibility6.2 mi. (10 km)
Clouds Few clouds 3,000 ft. (914 m)
Altimeter30.15 in.Hg (1021 mB)
Relative humidity63 %
Density altitude-235 ft. (-72 m)
Remarks No significant changes expected in the next two hours
Flight conditions Visual Meteorological Conditions
Raw dataRJTT 211300Z 03006KT 360V070 9999 FEW030 14/07 Q1021 NOSIG RMK 1SC030 A3016
An error has occurred. This application may no longer respond until reloaded. Reload 🗙